Time;durP1;ratioP1;P1;durP2;ratioP2;P2;SDS_P1;SDS_P2;PMS_P1;PMS_P2;Temp;Humidity;BMP_temperature;BMP_pressure;BME280_temperature;BME280_humidity;BME280_pressure;Samples;Min_cycle;Max_cycle;Signal;HPM_P1;HPM_P2
2021/11/30 00:00:33;;;;;;;22.75;10.18;;;5.80;99.90;;;3.70;100.00;100051.34;5029273;28;20081;-85
2021/11/30 00:03:01;;;;;;;29.17;9.50;;;5.80;99.90;;;3.70;100.00;100045.97;5029447;28;20041;-85
2021/11/30 00:05:33;;;;;;;23.00;9.20;;;5.80;99.90;;;3.70;100.00;100050.50;5025076;28;20042;-86
2021/11/30 00:08:04;;;;;;;25.17;10.57;;;5.90;99.90;;;3.66;100.00;100043.75;5009986;28;20050;-85
2021/11/30 00:10:47;;;;;;;25.30;9.00;;;5.80;99.90;;;3.63;100.00;100039.47;5018366;28;20050;-85
2021/11/30 00:13:23;;;;;;;;;;;5.80;99.90;;;3.64;100.00;100035.81;5010759;28;20049;-85
2021/11/30 00:15:55;;;;;;;22.73;9.05;;;5.80;99.90;;;3.64;100.00;100034.97;5010169;28;20279;-85
2021/11/30 00:18:23;;;;;;;21.50;8.98;;;5.80;99.90;;;3.63;100.00;100033.25;5028548;28;20037;-85
2021/11/30 00:20:52;;;;;;;24.17;8.98;;;5.80;99.90;;;3.59;100.00;100029.19;5013053;28;20120;-85
2021/11/30 00:23:24;;;;;;;25.05;8.80;;;5.80;99.90;;;3.59;100.00;100024.66;5028870;28;20124;-85
2021/11/30 00:25:54;;;;;;;26.08;9.40;;;6.00;99.90;;;3.57;100.00;100023.13;5022229;28;20033;-85
2021/11/30 00:28:26;;;;;;;22.10;8.38;;;5.80;99.90;;;3.51;100.00;100017.34;5008938;28;20045;-85
2021/11/30 00:30:57;;;;;;;17.13;8.65;;;5.80;99.90;;;3.52;100.00;100020.88;5009525;28;20050;-85
2021/11/30 00:33:26;;;;;;;24.55;8.90;;;5.80;99.90;;;3.53;100.00;100031.47;5008856;28;20127;-85
2021/11/30 00:35:53;;;;;;;18.02;8.15;;;5.90;99.90;;;3.55;100.00;100027.81;5010918;28;20037;-85
2021/11/30 00:38:21;;;;;;;22.30;8.65;;;5.80;99.90;;;3.56;100.00;100032.16;5009151;28;20077;-85
2021/11/30 00:40:49;;;;;;;17.30;8.25;;;5.80;99.90;;;3.49;100.00;100016.63;5011717;28;20049;-85
2021/11/30 00:43:20;;;;;;;18.20;8.82;;;5.80;99.90;;;3.52;100.00;100024.41;5013663;28;20082;-85
2021/11/30 00:45:55;;;;;;;17.95;8.90;;;5.80;99.90;;;3.52;100.00;100024.41;5015344;28;20385;-85
2021/11/30 00:48:29;;;;;;;22.23;9.27;;;5.70;99.90;;;3.53;100.00;100028.78;5023341;28;20057;-85
2021/11/30 00:51:00;;;;;;;21.05;9.93;;;5.80;99.90;;;3.52;100.00;100037.88;5033119;28;20049;-85
2021/11/30 00:53:28;;;;;;;20.92;9.05;;;5.70;99.90;;;3.48;100.00;100023.03;5027500;28;20053;-85
2021/11/30 00:55:55;;;;;;;23.25;9.48;;;5.70;99.90;;;3.56;100.00;100021.41;5028831;28;20053;-85
2021/11/30 00:58:23;;;;;;;19.25;9.13;;;5.80;99.90;;;3.57;100.00;100012.34;5029117;28;20042;-85
2021/11/30 01:00:52;;;;;;;27.13;9.88;;;5.90;99.90;;;3.57;100.00;100012.34;5028934;28;20128;-85
2021/11/30 01:03:19;;;;;;;20.48;10.13;;;5.70;99.90;;;3.58;100.00;100008.66;5028929;28;20517;-85
2021/11/30 01:05:46;;;;;;;20.00;9.55;;;5.70;99.90;;;3.53;100.00;99996.50;5027227;28;20045;-85
2021/11/30 01:08:15;;;;;;;19.35;10.50;;;5.70;99.90;;;3.50;100.00;99995.97;5029168;28;20049;-85
2021/11/30 01:10:42;;;;;;;24.20;10.32;;;5.70;99.90;;;3.50;100.00;99995.97;5028846;28;20056;-85
2021/11/30 01:13:10;;;;;;;21.40;10.23;;;5.70;99.90;;;3.49;100.00;99999.66;5028785;28;20044;-85
2021/11/30 01:15:38;;;;;;;23.20;10.23;;;5.70;99.90;;;3.52;100.00;99993.97;5027301;28;20132;-84
2021/11/30 01:18:07;;;;;;;19.73;10.75;;;5.70;99.90;;;3.49;100.00;99988.91;5029020;28;20041;-85
2021/11/30 01:20:35;;;;;;;21.35;10.93;;;5.70;99.90;;;3.53;100.00;99979.53;5028832;28;20047;-85
2021/11/30 01:23:03;;;;;;;21.67;11.05;;;5.70;99.90;;;3.48;100.00;99981.81;5028701;28;20045;-85
2021/11/30 01:25:30;;;;;;;22.83;11.82;;;5.60;99.90;;;3.48;100.00;99981.81;5028472;28;20124;-85
2021/11/30 01:27:58;;;;;;;21.85;11.18;;;5.70;99.90;;;3.51;100.00;99979.66;5028042;28;20096;-85
2021/11/30 01:30:25;;;;;;;21.65;11.48;;;5.60;99.90;;;3.51;100.00;99982.38;5026843;28;20120;-85
2021/11/30 01:32:52;;;;;;;17.92;10.88;;;5.60;99.90;;;3.53;100.00;99987.59;5028338;28;20042;-86
2021/11/30 01:35:21;;;;;;;21.08;11.07;;;5.60;99.90;;;3.49;100.00;99978.97;5008738;28;20050;-84
2021/11/30 01:37:49;;;;;;;21.50;11.38;;;5.70;99.90;;;3.40;100.00;99974.50;5008751;28;20041;-85
2021/11/30 01:40:19;;;;;;;25.42;12.00;;;5.70;99.90;;;3.41;100.00;99962.75;5009011;28;20042;-85
2021/11/30 01:42:49;;;;;;;19.85;11.77;;;5.60;99.90;;;3.42;100.00;99972.50;5026834;28;20430;-85
2021/11/30 01:45:29;;;;;;;21.58;11.27;;;5.60;99.90;;;3.43;100.00;99968.84;5028367;28;20052;-85
2021/11/30 01:50:57;;;;;;;22.08;11.27;;;5.60;99.90;;;3.45;100.00;99963.31;5006276;28;20046;-85
2021/11/30 01:53:25;;;;;;;25.17;10.18;;;5.60;99.90;;;3.44;100.00;99962.44;5023924;28;20111;-85
2021/11/30 01:55:53;;;;;;;23.10;10.68;;;5.60;99.90;;;3.45;100.00;99958.75;5028009;28;20068;-85
2021/11/30 01:58:21;;;;;;;17.00;9.52;;;5.60;99.90;;;3.45;100.00;99948.00;5028688;28;20046;-86
2021/11/30 02:00:49;;;;;;;19.00;10.80;;;5.60;99.90;;;3.47;100.00;99943.31;5028297;28;20417;-85
2021/11/30 02:03:16;;;;;;;24.70;10.70;;;5.70;99.90;;;3.43;100.00;99941.94;5028295;28;20482;-85
2021/11/30 02:05:44;;;;;;;21.67;10.85;;;5.50;99.90;;;3.44;100.00;99940.91;5027959;28;20404;-85
2021/11/30 02:08:13;;;;;;;23.65;10.30;;;5.50;99.90;;;3.45;100.00;99931.88;5028278;28;20081;-85
2021/11/30 02:10:40;;;;;;;20.33;9.90;;;5.50;99.90;;;3.38;100.00;99932.63;5028069;28;20099;-85
2021/11/30 06:11:27;;;;;;;5.93;4.07;;;6.10;99.90;;;4.14;100.00;99540.81;5007284;28;20058;-85
2021/11/30 06:13:54;;;;;;;6.85;4.30;;;6.10;99.90;;;4.16;100.00;99539.63;5008876;28;20045;-86
2021/11/30 06:16:22;;;;;;;6.22;4.03;;;6.10;99.90;;;4.21;100.00;99533.75;5011147;28;20042;-86
2021/11/30 06:18:50;;;;;;;6.10;3.78;;;6.20;99.90;;;4.22;100.00;99527.34;5012219;28;20046;-86
2021/11/30 06:21:18;;;;;;;7.70;3.75;;;6.20;99.90;;;4.26;100.00;99528.69;5012282;28;20406;-86
2021/11/30 06:23:47;;;;;;;7.65;4.18;;;6.20;99.90;;;4.29;100.00;99531.91;5011983;28;20116;-86
2021/11/30 06:26:15;;;;;;;8.57;4.60;;;6.30;99.90;;;4.31;100.00;99532.56;5011726;28;20045;-85
2021/11/30 06:28:45;;;;;;;6.22;4.18;;;6.30;99.90;;;4.31;100.00;99527.19;5012099;28;20485;-86
2021/11/30 06:31:12;;;;;;;7.13;4.28;;;6.30;99.90;;;4.36;100.00;99525.81;5012111;28;20042;-85
2021/11/30 06:33:39;;;;;;;6.55;4.50;;;6.30;99.90;;;4.39;100.00;99523.63;5005861;28;20131;-85
2021/11/30 06:36:07;;;;;;;8.68;4.97;;;6.30;99.90;;;4.44;100.00;99517.75;4992208;28;20121;-85
2021/11/30 06:38:34;;;;;;;6.95;4.70;;;6.40;99.90;;;4.48;100.00;99527.19;5007829;28;20042;-85
2021/11/30 06:41:02;;;;;;;7.50;4.68;;;6.40;99.90;;;4.47;100.00;99518.28;5012088;28;20038;-86
2021/11/30 06:43:29;;;;;;;7.22;4.85;;;6.40;99.90;;;4.50;100.00;99517.06;5010563;28;20104;-85
2021/11/30 06:45:58;;;;;;;8.00;5.15;;;6.40;99.90;;;4.54;100.00;99521.09;5026741;28;20149;-84
2021/11/30 06:48:25;;;;;;;8.35;5.07;;;6.50;99.90;;;4.57;100.00;99504.63;5000774;28;20066;-85
2021/11/30 06:50:52;;;;;;;10.45;5.95;;;6.50;99.90;;;4.62;100.00;99514.88;4992134;28;20116;-85
2021/11/30 06:53:21;;;;;;;10.68;5.50;;;6.50;99.90;;;4.62;100.00;99518.41;4992026;28;20434;-85
2021/11/30 06:55:48;;;;;;;10.13;5.97;;;6.50;99.90;;;4.65;100.00;99507.28;4991922;28;20046;-85
2021/11/30 06:58:16;;;;;;;8.63;6.18;;;6.60;99.90;;;4.65;100.00;99501.91;4996285;28;20112;-85
2021/11/30 07:00:45;;;;;;;10.13;7.00;;;6.60;99.90;;;4.70;100.00;99506.75;5011520;28;20649;-88
2021/11/30 07:03:14;;;;;;;10.38;7.28;;;6.60;99.90;;;4.76;100.00;99502.53;5009408;28;20041;-88
2021/11/30 07:05:43;;;;;;;12.80;7.68;;;6.70;99.90;;;4.79;100.00;99486.03;5010338;28;20057;-88
2021/11/30 07:08:17;;;;;;;13.82;8.75;;;6.70;99.90;;;4.83;100.00;99503.53;5009979;28;20815;-89
2021/11/30 07:10:47;;;;;;;15.68;9.07;;;6.70;99.90;;;4.85;100.00;99496.13;5011353;28;20041;-87
2021/11/30 07:13:21;;;;;;;12.43;8.80;;;6.80;99.90;;;4.92;100.00;99493.59;5009988;28;20050;-86
2021/11/30 07:15:52;;;;;;;13.48;9.32;;;6.80;99.90;;;4.96;100.00;99492.22;5006323;28;20050;-84
2021/11/30 07:18:21;;;;;;;12.40;8.85;;;6.80;99.90;;;4.98;100.00;99491.00;5011294;28;20056;-85
2021/11/30 07:20:49;;;;;;;13.00;9.45;;;6.80;99.90;;;5.00;100.00;99480.91;5009733;28;20088;-85
2021/11/30 07:23:17;;;;;;;13.90;9.52;;;6.90;99.90;;;5.06;100.00;99480.22;5006511;28;20140;-85
2021/11/30 07:25:45;;;;;;;13.20;9.50;;;6.90;99.90;;;5.11;100.00;99478.84;4997758;28;20046;-86
2021/11/30 07:28:12;;;;;;;15.25;10.65;;;6.90;99.90;;;5.15;100.00;99477.47;5009285;28;20037;-86
2021/11/30 07:30:40;;;;;;;14.45;9.77;;;7.00;99.90;;;5.16;100.00;99482.72;5011051;28;20045;-85
2021/11/30 07:33:08;;;;;;;17.67;10.68;;;7.00;99.90;;;5.21;100.00;99474.06;5002898;28;20038;-85
2021/11/30 07:35:36;;;;;;;14.40;10.35;;;7.00;99.90;;;5.26;100.00;99471.69;5010916;28;20049;-86
2021/11/30 07:38:04;;;;;;;16.33;11.35;;;7.10;99.90;;;5.31;100.00;99484.66;4999450;28;20105;-85
2021/11/30 07:40:31;;;;;;;16.88;11.27;;;7.10;99.90;;;5.33;100.00;99475.38;4991364;28;20506;-85
2021/11/30 07:42:58;;;;;;;18.10;11.75;;;7.20;99.90;;;5.37;100.00;99484.78;5003211;28;20108;-85
2021/11/30 07:45:26;;;;;;;16.58;11.15;;;7.20;99.90;;;5.43;100.00;99478.69;5010514;28;20048;-85
2021/11/30 07:47:53;;;;;;;15.18;10.93;;;7.30;99.90;;;5.47;100.00;99490.81;5010597;28;20046;-86
2021/11/30 07:50:20;;;;;;;18.08;11.50;;;7.30;99.90;;;5.54;100.00;99490.09;5010721;28;20581;-85
2021/11/30 07:52:49;;;;;;;15.93;11.38;;;7.30;99.90;;;5.57;100.00;99484.34;5005311;28;20038;-85
2021/11/30 07:55:18;;;;;;;17.15;12.02;;;7.30;99.90;;;5.59;100.00;99493.09;5001555;28;20128;-86
2021/11/30 07:57:46;;;;;;;18.02;11.57;;;7.40;99.90;;;5.63;100.00;99495.25;5010346;28;20046;-86
2021/11/30 08:00:18;;;;;;;21.00;11.60;;;7.40;99.90;;;5.62;100.00;99490.06;5010575;28;20070;-86
2021/11/30 08:02:47;;;;;;;17.27;11.20;;;7.50;99.90;;;5.65;100.00;99482.44;5006650;28;20046;-85
2021/11/30 08:05:15;;;;;;;14.75;10.27;;;7.50;99.90;;;5.73;100.00;99494.19;5009917;28;20453;-85
2021/11/30 08:07:43;;;;;;;16.10;10.63;;;7.50;99.90;;;5.72;100.00;99466.38;5010414;28;20046;-86
2021/11/30 08:10:16;;;;;;;18.42;11.35;;;7.50;99.90;;;5.75;100.00;99490.31;5010122;28;20045;-86
2021/11/30 08:15:41;;;;;;;15.40;10.45;;;7.60;99.90;;;5.83;100.00;99484.84;4988993;28;20057;-91
2021/11/30 08:18:09;;;;;;;17.27;10.07;;;7.60;99.90;;;5.87;100.00;99488.03;4990180;28;20050;-95
2021/11/30 08:20:37;;;;;;;15.75;10.27;;;7.70;99.90;;;5.91;100.00;99486.66;4973830;28;20047;-92
2021/11/30 08:23:04;;;;;;;17.13;10.27;;;7.70;99.90;;;5.94;100.00;99485.44;4989603;28;20043;-92
2021/11/30 08:25:34;;;;;;;17.40;9.75;;;7.70;99.90;;;5.97;100.00;99496.75;4991229;28;20043;-92
2021/11/30 08:28:01;;;;;;;17.00;9.73;;;7.70;99.90;;;5.95;100.00;99492.53;4973930;28;20066;-91
2021/11/30 08:30:29;;;;;;;15.70;9.30;;;7.70;99.90;;;5.98;100.00;99482.25;4990569;28;20466;-92
2021/11/30 08:32:56;;;;;;;15.30;9.05;;;7.80;99.90;;;5.99;100.00;99477.69;4987661;28;20800;-91
2021/11/30 08:35:24;;;;;;;13.50;8.80;;;7.80;99.90;;;6.05;100.00;99477.81;5002127;28;20035;-91
2021/11/30 08:37:52;;;;;;;13.45;8.32;;;7.90;99.90;;;6.07;100.00;99475.78;4989585;28;20047;-90
2021/11/30 08:40:19;;;;;;;13.98;8.60;;;7.90;99.90;;;6.11;100.00;99486.19;4989558;28;20560;-91
2021/11/30 08:42:48;;;;;;;14.23;8.65;;;7.90;99.90;;;6.09;100.00;99483.66;4987497;28;20050;-91
2021/11/30 08:45:16;;;;;;;12.20;7.93;;;8.00;99.90;;;6.16;100.00;99468.41;5020225;23;20050;-87
2021/11/30 08:47:44;;;;;;;13.07;8.07;;;7.90;99.90;;;6.19;100.00;99480.75;5005147;28;20046;-86
2021/11/30 08:50:15;;;;;;;11.45;7.60;;;8.00;99.90;;;6.21;100.00;99487.63;5004626;28;20490;-87
2021/11/30 08:52:43;;;;;;;;;;;8.00;99.90;;;6.23;100.00;99480.19;5007916;28;20423;-87
2021/11/30 08:55:11;;;;;;;10.68;6.75;;;8.00;99.90;;;6.26;100.00;99466.31;4986651;28;19932;-87
2021/11/30 08:57:40;;;;;;;10.32;6.80;;;8.00;99.90;;;6.29;100.00;99467.81;5002309;28;20050;-87
2021/11/30 09:00:13;;;;;;;11.13;6.95;;;8.00;99.90;;;6.25;100.00;99472.72;5000555;28;20496;-87
2021/11/30 09:02:41;;;;;;;11.80;7.60;;;8.10;99.90;;;6.32;100.00;99469.28;4999193;28;20046;-86
2021/11/30 09:05:11;;;;;;;14.43;8.32;;;8.10;99.90;;;6.34;100.00;99467.25;4986492;28;20113;-86
2021/11/30 09:07:39;;;;;;;17.60;8.63;;;8.10;99.90;;;6.37;100.00;99483.09;4986862;28;20046;-87
2021/11/30 09:10:08;;;;;;;19.00;8.68;;;8.10;99.90;;;6.38;100.00;99477.53;5002470;28;20557;-89
2021/11/30 09:12:36;;;;;;;16.73;8.73;;;8.10;99.90;;;6.44;100.00;99473.25;4995379;28;20141;-89
2021/11/30 09:15:10;;;;;;;14.32;7.82;;;8.10;99.90;;;6.45;100.00;99466.81;5001591;28;20053;-89
2021/11/30 09:17:37;;;;;;;14.38;8.75;;;8.20;99.90;;;6.46;100.00;99463.09;4998865;28;20054;-89
2021/11/30 09:20:07;;;;;;;13.85;8.15;;;8.20;99.90;;;6.46;100.00;99463.09;4992336;28;20042;-90
2021/11/30 09:22:34;;;;;;;16.60;8.32;;;8.20;99.90;;;6.49;100.00;99470.81;4984762;28;20042;-89
2021/11/30 09:25:04;;;;;;;13.48;7.65;;;8.20;99.90;;;6.51;100.00;99466.09;4984726;28;20508;-89
2021/11/30 09:27:32;;;;;;;11.50;7.40;;;8.30;99.90;;;6.51;100.00;99449.88;4982418;28;20066;-89
2021/11/30 09:30:00;;;;;;;12.57;7.05;;;8.20;99.90;;;6.56;100.00;99452.84;4967878;28;20072;-90
2021/11/30 09:32:31;;;;;;;13.95;6.85;;;8.30;99.90;;;6.58;100.00;99468.88;4989239;28;20058;-89
2021/11/30 09:35:00;;;;;;;13.77;7.10;;;8.30;99.90;;;6.57;100.00;99462.66;4985311;28;20053;-89
2021/11/30 09:37:28;;;;;;;12.07;6.32;;;8.30;99.90;;;6.60;100.00;99464.97;4986962;28;20046;-89
2021/11/30 09:39:58;;;;;;;11.10;7.00;;;8.40;99.90;;;6.59;100.00;99474.09;4998561;28;20047;-89
2021/11/30 09:42:25;;;;;;;13.05;7.53;;;8.40;99.90;;;6.60;100.00;99459.56;4990824;28;20121;-89
2021/11/30 09:44:55;;;;;;;12.95;8.05;;;8.40;99.90;;;6.63;100.00;99456.50;5001623;28;20778;-89
2021/11/30 09:47:23;;;;;;;13.10;8.20;;;8.40;99.90;;;6.63;100.00;99463.78;5001415;28;20046;-88
2021/11/30 09:49:52;;;;;;;13.20;8.23;;;8.40;99.90;;;6.64;100.00;99450.06;4988528;28;20038;-88
2021/11/30 09:53:03;;;;;;;13.20;8.63;;;8.50;99.90;;;6.69;100.00;99451.38;4985607;28;20042;-89
2021/11/30 09:55:31;;;;;;;13.57;9.23;;;8.50;99.90;;;6.72;100.00;99462.66;5000487;28;20047;-89
2021/11/30 09:57:58;;;;;;;15.25;9.20;;;8.50;99.90;;;6.70;100.00;99464.72;4990083;28;20042;-88
2021/11/30 10:00:58;;;;;;;15.90;10.23;;;8.50;99.90;;;6.77;100.00;99467.50;4978886;28;20070;-87
2021/11/30 10:11:43;;;;;;;9.90;7.15;;;8.60;99.90;;;6.80;100.00;99459.84;4945331;29;20190;-89
2021/11/30 10:14:22;;;;;;;12.57;6.93;;;8.60;99.90;;;6.84;100.00;99465.75;4931626;29;20047;-89
2021/11/30 10:17:18;;;;;;;10.57;7.03;;;8.60;99.90;;;6.88;100.00;99461.63;4931709;29;20039;-88
2021/11/30 10:19:55;;;;;;;13.02;6.45;;;8.60;99.90;;;6.91;100.00;99449.59;4948185;29;20055;-89
2021/11/30 10:22:46;;;;;;;9.52;6.25;;;8.70;99.90;;;6.95;100.00;99461.72;4936639;29;20043;-89
2021/11/30 10:25:18;;;;;;;8.43;5.13;;;8.70;99.90;;;6.98;100.00;99454.06;4925950;29;20055;-89
2021/11/30 10:27:51;;;;;;;8.63;5.47;;;8.70;99.90;;;7.02;100.00;99454.53;4954056;28;20097;-89
2021/11/30 10:30:21;;;;;;;9.52;5.18;;;8.70;99.90;;;7.04;100.00;99453.34;4922137;29;20074;-89
2021/11/30 10:33:04;;;;;;;7.22;5.20;;;8.70;99.90;;;7.07;100.00;99449.41;4942551;29;20274;-89
2021/11/30 10:35:53;;;;;;;6.53;4.60;;;8.80;99.90;;;7.05;100.00;99446.88;4919473;29;20103;-89
2021/11/30 10:38:23;;;;;;;7.70;3.97;;;8.70;99.90;;;7.08;100.00;99447.53;4922398;29;20047;-88
2021/11/30 10:40:50;;;;;;;6.75;4.25;;;8.80;99.90;;;7.12;100.00;99455.09;4932270;29;20163;-89
2021/11/30 10:43:24;;;;;;;6.47;4.55;;;8.80;99.90;;;7.15;100.00;99448.47;4951007;28;20054;-89
2021/11/30 10:45:52;;;;;;;6.38;3.90;;;8.80;99.90;;;7.15;100.00;99453.88;4986742;28;20138;-89
2021/11/30 10:52:34;;;;;;;6.00;3.80;;;8.90;99.90;;;7.21;100.00;99450.41;4988057;28;20106;-89
2021/11/30 10:55:08;;;;;;;6.90;3.78;;;8.90;99.90;;;7.23;100.00;99451.06;4977097;28;20073;-89
2021/11/30 10:58:39;;;;;;;5.03;3.30;;;8.90;99.90;;;7.26;100.00;99450.69;4977648;28;20031;-89
2021/11/30 11:01:12;;;;;;;7.15;3.63;;;8.90;99.90;;;7.27;100.00;99443.41;4986342;28;20069;-89
2021/11/30 11:03:39;;;;;;;6.00;3.33;;;9.00;99.90;;;7.29;100.00;99444.91;4971001;28;20054;-89
2021/11/30 11:09:16;;;;;;;5.65;3.33;;;9.00;99.90;;;7.33;100.00;99435.38;5002614;28;20576;-89
2021/11/30 11:12:25;;;;;;;6.05;3.40;;;9.00;99.90;;;7.36;100.00;99453.09;4988553;28;20061;-89
2021/11/30 11:15:05;;;;;;;5.93;3.38;;;9.10;99.90;;;7.38;100.00;99451.84;5000894;28;20137;-89
2021/11/30 11:17:35;;;;;;;6.00;3.83;;;9.10;99.90;;;7.43;100.00;99445.88;4988890;28;20062;-89
2021/11/30 11:20:09;;;;;;;7.25;3.88;;;9.10;99.90;;;7.48;100.00;99445.31;4983308;28;20044;-88
2021/11/30 11:22:50;;;;;;;5.25;3.42;;;9.20;99.90;;;7.48;100.00;99445.31;4988654;28;20643;-89
2021/11/30 11:25:31;;;;;;;5.15;3.25;;;9.10;99.90;;;7.51;100.00;99459.28;4980291;28;20065;-89
2021/11/30 11:28:30;;;;;;;6.95;3.85;;;9.20;99.90;;;7.52;100.00;99446.59;4986294;28;20042;-89
2021/11/30 11:31:53;;;;;;;5.22;3.13;;;9.20;99.90;;;7.55;100.00;99451.63;4977784;28;20824;-89
2021/11/30 11:35:03;;;;;;;6.35;2.97;;;9.30;99.90;;;7.56;100.00;99459.56;4928968;29;20043;-89
2021/11/30 11:37:31;;;;;;;6.35;3.03;;;9.30;99.90;;;7.56;100.00;99462.28;4938819;29;20051;-89
2021/11/30 11:40:53;;;;;;;4.45;2.85;;;9.20;99.90;;;7.57;100.00;99458.53;4922688;29;20524;-89
2021/11/30 12:01:08;;;;;;;3.22;1.85;;;9.40;99.90;;;7.70;100.00;99455.13;4860807;29;20138;-88
2021/11/30 12:13:18;;;;;;;5.57;2.35;;;9.40;99.90;;;7.71;100.00;99478.50;4905518;29;20047;-89
2021/11/30 12:16:00;;;;;;;4.72;2.72;;;9.40;99.90;;;7.70;100.00;99486.81;4906255;29;20048;-89
2021/11/30 12:18:32;;;;;;;7.80;3.35;;;9.50;99.90;;;7.71;100.00;99478.50;4908457;29;20665;-89
2021/11/30 12:21:12;;;;;;;4.53;3.05;;;9.50;99.90;;;7.73;100.00;99478.28;4893600;29;20056;-89
2021/11/30 13:26:19;;;;;;;5.32;3.40;;;9.60;99.90;;;7.82;100.00;99474.41;4974461;28;20500;-89
2021/11/30 13:28:47;;;;;;;8.60;3.08;;;9.60;99.90;;;7.82;100.00;99483.41;4970100;28;20121;-89
2021/11/30 13:31:15;;;;;;;5.18;3.00;;;9.70;99.90;;;7.81;100.00;99470.88;4984739;28;20073;-89
2021/11/30 13:33:42;;;;;;;5.75;2.80;;;9.70;99.90;;;7.86;100.00;99480.28;4986392;28;20046;-89
2021/11/30 13:36:10;;;;;;;6.25;3.63;;;9.70;99.90;;;7.85;100.00;99486.75;4984892;28;20085;-89
2021/11/30 13:38:41;;;;;;;5.15;3.00;;;9.70;99.90;;;7.86;100.00;99488.41;4986265;28;20043;-89
2021/11/30 13:41:11;;;;;;;5.18;3.25;;;9.70;99.90;;;7.86;100.00;99499.25;4985403;28;20046;-89
2021/11/30 13:43:43;;;;;;;6.53;3.63;;;9.70;99.90;;;7.86;100.00;99491.13;4984863;28;20048;-88
2021/11/30 13:46:14;;;;;;;7.20;3.50;;;9.70;99.90;;;7.78;100.00;99492.91;4985817;28;20050;-90
2021/11/30 13:49:07;;;;;;;8.00;3.40;;;9.70;99.90;;;7.79;100.00;99494.59;4985622;28;20073;-90
2021/11/30 13:51:41;;;;;;;7.15;3.20;;;9.70;99.90;;;7.83;100.00;99498.59;4983656;28;20046;-90
2021/11/30 14:14:55;;;;;;;4.50;2.80;;;9.70;99.90;;;7.76;100.00;99486.84;4996221;23;20202;-91
2021/11/30 14:17:31;;;;;;;5.07;3.17;;;9.70;99.90;;;7.76;100.00;99492.28;5010078;28;20038;-91
2021/11/30 14:20:03;;;;;;;4.60;3.05;;;9.70;99.90;;;7.71;100.00;99489.31;5023372;28;20033;-91
2021/11/30 14:22:33;;;;;;;5.30;3.03;;;9.70;99.90;;;7.79;100.00;99502.75;5022269;28;20049;-92
2021/11/30 14:25:07;;;;;;;5.13;2.95;;;9.70;99.90;;;7.73;100.00;99492.69;5012139;28;20050;-90
2021/11/30 14:27:42;;;;;;;5.57;3.10;;;9.70;99.90;;;7.82;100.00;99512.34;5017065;28;20045;-92
2021/11/30 14:30:15;;;;;;;5.47;2.65;;;9.70;99.90;;;7.81;100.00;99506.09;4995086;28;20050;-91
2021/11/30 14:32:44;;;;;;;5.05;2.80;;;9.70;99.90;;;7.79;100.00;99497.31;5019213;28;20054;-91
2021/11/30 14:35:14;;;;;;;5.60;2.70;;;9.70;99.90;;;7.85;100.00;99503.84;5006725;28;20045;-92
2021/11/30 14:37:50;;;;;;;5.40;2.67;;;9.70;99.90;;;7.85;100.00;99506.53;5010935;28;20041;-91
2021/11/30 14:40:23;;;;;;;5.05;2.50;;;9.70;99.90;;;7.88;100.00;99505.31;5005810;28;20045;-93
2021/11/30 14:42:52;;;;;;;5.80;3.05;;;9.70;99.90;;;7.87;100.00;99504.47;5009925;28;20042;-90
2021/11/30 14:45:29;;;;;;;6.75;3.00;;;9.70;99.90;;;7.89;100.00;99512.44;5009189;28;20088;-90
2021/11/30 14:48:08;;;;;;;4.55;2.58;;;9.70;99.90;;;7.81;100.00;99507.97;5010213;28;20054;-93
2021/11/30 14:50:41;;;;;;;4.18;2.30;;;9.70;99.90;;;7.87;100.00;99530.75;5006635;28;20139;-91
2021/11/30 14:53:18;;;;;;;4.50;2.45;;;9.70;99.90;;;7.83;100.00;99520.28;5004496;28;20081;-91
2021/11/30 14:55:51;;;;;;;3.90;2.30;;;9.80;99.90;;;7.81;100.00;99522.34;5008864;28;20068;-89
2021/11/30 14:58:28;;;;;;;3.92;1.90;;;9.80;99.90;;;7.77;100.00;99521.06;5008205;28;20058;-91
2021/11/30 15:01:16;;;;;;;4.65;2.00;;;9.70;99.90;;;7.74;100.00;99529.53;5011741;28;20542;-91
2021/11/30 15:04:03;;;;;;;13.88;2.70;;;9.80;99.90;;;7.77;100.00;99533.75;5001275;28;20045;-92
2021/11/30 15:06:42;;;;;;;5.78;2.40;;;9.70;99.90;;;7.77;100.00;99542.72;5012691;28;20056;-92
2021/11/30 15:09:17;;;;;;;4.03;2.30;;;9.70;99.90;;;7.76;100.00;99546.44;5009824;28;20065;-93
2021/11/30 15:11:50;;;;;;;4.40;2.33;;;9.70;99.90;;;7.73;100.00;99536.00;5006129;28;20042;-91
2021/11/30 15:14:20;;;;;;;5.72;2.35;;;9.70;99.90;;;7.72;100.00;99550.56;5006657;28;20056;-90
2021/11/30 15:16:57;;;;;;;5.87;2.90;;;9.70;99.90;;;7.76;100.00;99557.28;4995523;28;20415;-85
2021/11/30 15:19:28;;;;;;;3.70;2.30;;;9.70;99.90;;;7.78;100.00;99560.63;5003804;28;20044;-86
2021/11/30 15:22:04;;;;;;;5.45;2.60;;;9.70;99.90;;;7.75;100.00;99557.47;5005305;28;20068;-85
2021/11/30 15:24:36;;;;;;;6.53;2.60;;;9.70;99.90;;;7.72;100.00;99555.97;5000353;28;20043;-86
2021/11/30 15:27:08;;;;;;;4.20;2.25;;;9.70;99.90;;;7.72;100.00;99555.97;5010667;28;20050;-86
2021/11/30 15:29:37;;;;;;;4.90;2.20;;;9.70;99.90;;;7.76;100.00;99562.69;5009240;28;20119;-86
2021/11/30 15:32:12;;;;;;;4.60;2.40;;;9.70;99.90;;;7.76;100.00;99565.41;5009293;28;20505;-86
2021/11/30 15:34:41;;;;;;;4.00;2.30;;;9.70;99.90;;;7.75;100.00;99571.88;5008438;28;20648;-87
2021/11/30 15:37:10;;;;;;;6.78;2.60;;;9.70;99.90;;;7.73;100.00;99568.50;5010445;28;20060;-86
2021/11/30 15:39:39;;;;;;;4.13;2.30;;;9.70;99.90;;;7.76;100.00;99587.06;5010730;28;20125;-86
2021/11/30 15:42:10;;;;;;;3.15;1.98;;;9.70;99.90;;;7.76;100.00;99573.53;5007677;28;20668;-87
2021/11/30 15:45:18;;;;;;;5.40;2.65;;;9.70;99.90;;;7.72;100.00;99574.94;5003779;28;20037;-86
2021/11/30 15:48:22;;;;;;;4.63;2.30;;;9.70;99.90;;;7.71;100.00;99570.56;5015714;28;20132;-87
2021/11/30 15:51:04;;;;;;;4.82;2.47;;;9.70;99.90;;;7.74;100.00;99586.41;5009089;28;20345;-86
2021/11/30 15:53:32;;;;;;;3.95;2.40;;;9.70;99.90;;;7.71;100.00;99585.94;5007422;28;20049;-85
2021/11/30 15:58:45;;;;;;;4.28;2.28;;;9.70;99.90;;;7.73;100.00;99589.31;5009044;28;20053;-85
2021/11/30 16:01:13;;;;;;;7.07;2.50;;;9.70;99.90;;;7.72;100.00;99593.06;5010198;28;20589;-85
2021/11/30 16:03:42;;;;;;;4.50;2.80;;;9.70;99.90;;;7.68;100.00;99598.00;5006521;28;20565;-85
2021/11/30 16:06:10;;;;;;;5.47;2.80;;;9.70;99.90;;;7.70;100.00;99598.66;5004433;28;20050;-85
2021/11/30 16:08:38;;;;;;;5.22;2.97;;;9.70;99.90;;;7.71;100.00;99596.78;5006236;28;20088;-85
2021/11/30 16:11:05;;;;;;;5.63;2.58;;;9.70;99.90;;;7.71;100.00;99597.66;4990509;28;20043;-85
2021/11/30 16:13:33;;;;;;;4.85;2.92;;;9.70;99.90;;;7.71;100.00;99596.78;5005306;28;20045;-85
2021/11/30 16:16:00;;;;;;;5.38;3.22;;;9.70;99.90;;;7.73;100.00;99595.59;4994437;28;20546;-86
2021/11/30 16:18:27;;;;;;;4.35;2.97;;;9.70;99.90;;;7.69;100.00;99599.72;4990406;28;20387;-85
2021/11/30 16:20:56;;;;;;;5.55;3.38;;;9.70;99.90;;;7.69;100.00;99591.59;5011201;28;20034;-85
2021/11/30 16:23:24;;;;;;;5.40;3.33;;;9.70;99.90;;;7.69;100.00;99593.44;5010936;28;20038;-91
2021/11/30 16:25:51;;;;;;;6.13;3.63;;;9.70;99.90;;;7.70;100.00;99590.53;5015267;28;20100;-86
2021/11/30 16:28:33;;;;;;;5.47;3.50;;;9.70;99.90;;;7.69;100.00;99582.59;5019093;28;20545;-87
2021/11/30 16:31:00;;;;;;;6.95;4.00;;;9.60;99.90;;;7.69;100.00;99586.16;5004746;28;20045;-85
2021/11/30 16:33:28;;;;;;;6.38;3.80;;;9.70;99.90;;;7.70;100.00;99579.72;5001546;28;20068;-86
2021/11/30 16:35:57;;;;;;;5.35;3.65;;;9.70;99.90;;;7.69;100.00;99572.63;5003250;28;20125;-85
2021/11/30 16:38:25;;;;;;;5.30;3.65;;;9.70;99.90;;;7.70;100.00;99582.41;5002134;28;20056;-85
2021/11/30 16:40:53;;;;;;;7.65;3.80;;;9.70;99.90;;;7.68;100.00;99578.22;4996224;28;20522;-85
2021/11/30 16:43:24;;;;;;;5.97;3.83;;;9.70;99.90;;;7.67;100.00;99587.38;5006217;28;20045;-85
2021/11/30 16:45:52;;;;;;;6.28;3.90;;;9.70;99.90;;;7.60;100.00;99585.41;4999073;28;20069;-85
2021/11/30 16:48:20;;;;;;;7.40;3.30;;;9.70;99.90;;;7.65;100.00;99587.56;5007418;28;20434;-85
2021/11/30 16:50:48;;;;;;;8.10;3.95;;;9.70;99.90;;;7.63;100.00;99593.19;5006573;28;20034;-86
2021/11/30 16:53:26;;;;;;;6.60;4.28;;;9.70;99.90;;;7.68;100.00;99591.78;5021308;28;20069;-86